Time;durP1;ratioP1;P1;durP2;ratioP2;P2;SDS_P1;SDS_P2;PMS_P1;PMS_P2;Temp;Humidity;BMP_temperature;BMP_pressure;BME280_temperature;BME280_humidity;BME280_pressure;Samples;Min_cycle;Max_cycle;Signal;HPM_P1;HPM_P2
2021/07/18 00:01:54;;;;;;;14.67;9.20;;;16.90;95.00;;;;;;5114735;28;20050;-70
2021/07/18 00:04:20;;;;;;;11.83;8.53;;;16.90;95.00;;;;;;5114331;28;20520;-70
2021/07/18 00:06:46;;;;;;;18.67;9.77;;;16.90;95.10;;;;;;5113758;28;20089;-70
2021/07/18 00:09:11;;;;;;;16.53;8.87;;;16.90;95.10;;;;;;5114212;28;20059;-70
2021/07/18 00:11:38;;;;;;;15.77;9.17;;;16.90;95.10;;;;;;5113507;28;20051;-69
2021/07/18 00:14:04;;;;;;;18.60;9.77;;;16.90;95.20;;;;;;5114152;28;20051;-70
2021/07/18 00:16:31;;;;;;;18.37;10.27;;;16.80;95.20;;;;;;5114373;28;20059;-69
2021/07/18 00:18:58;;;;;;;19.03;9.97;;;16.80;95.30;;;;;;5113404;28;20071;-70
2021/07/18 00:21:24;;;;;;;16.23;9.23;;;16.80;95.30;;;;;;5113950;28;20471;-70
2021/07/18 00:23:52;;;;;;;16.57;10.07;;;16.80;95.30;;;;;;5114153;28;20052;-70
2021/07/18 00:26:17;;;;;;;17.30;9.60;;;16.80;95.40;;;;;;5112971;28;20048;-69
2021/07/18 00:28:43;;;;;;;16.27;9.93;;;16.70;95.40;;;;;;5113686;28;20070;-70
2021/07/18 00:31:09;;;;;;;14.27;9.70;;;16.70;95.50;;;;;;5113954;28;20063;-70
2021/07/18 00:33:35;;;;;;;15.77;9.53;;;16.70;95.50;;;;;;5113256;28;20135;-70
2021/07/18 00:36:02;;;;;;;16.67;9.53;;;16.70;95.60;;;;;;5113617;28;20055;-70
2021/07/18 00:38:28;;;;;;;16.10;9.37;;;16.70;95.60;;;;;;5113723;28;20444;-70
2021/07/18 00:40:53;;;;;;;15.43;9.83;;;16.70;95.70;;;;;;5113206;28;20051;-70
2021/07/18 00:43:19;;;;;;;16.67;9.87;;;16.70;95.70;;;;;;5113414;28;20067;-70
2021/07/18 00:45:45;;;;;;;18.77;10.17;;;16.60;95.70;;;;;;5113830;28;20071;-70
2021/07/18 00:48:11;;;;;;;19.97;9.70;;;16.60;95.80;;;;;;5112505;28;20074;-70
2021/07/18 00:50:43;;;;;;;17.37;10.07;;;16.60;95.80;;;;;;5113603;28;20055;-70
2021/07/18 00:53:11;;;;;;;15.13;9.93;;;16.60;95.90;;;;;;5113181;28;20059;-70
2021/07/18 00:55:40;;;;;;;17.23;10.50;;;16.50;95.90;;;;;;5112706;28;20499;-70
2021/07/18 00:58:06;;;;;;;14.50;9.57;;;16.50;95.90;;;;;;5113098;28;20052;-70
2021/07/18 01:00:32;;;;;;;18.37;10.00;;;16.50;95.90;;;;;;5113478;28;20617;-70
2021/07/18 01:03:01;;;;;;;15.00;10.03;;;16.50;95.90;;;;;;5112229;28;20445;-70
2021/07/18 01:05:27;;;;;;;16.93;11.07;;;16.50;96.00;;;;;;5113341;28;20055;-70
2021/07/18 01:07:53;;;;;;;19.00;11.17;;;16.50;96.10;;;;;;5112294;28;20051;-70
2021/07/18 01:10:18;;;;;;;16.30;10.77;;;16.50;96.10;;;;;;5113001;28;20072;-70
2021/07/18 01:12:44;;;;;;;17.27;10.77;;;16.50;96.20;;;;;;5113227;28;20051;-69
2021/07/18 01:15:11;;;;;;;19.10;11.17;;;16.40;96.20;;;;;;5112026;28;20046;-70
2021/07/18 01:17:37;;;;;;;16.13;10.97;;;16.50;96.20;;;;;;5113364;28;20350;-69
2021/07/18 01:20:05;;;;;;;18.03;10.47;;;16.40;96.20;;;;;;5112713;28;20148;-70
2021/07/18 01:22:31;;;;;;;21.57;11.03;;;16.40;96.30;;;;;;5112070;27;20408;-70
2021/07/18 01:24:57;;;;;;;17.37;11.47;;;16.40;96.30;;;;;;5113052;28;20499;-69
2021/07/18 01:27:23;;;;;;;19.57;12.30;;;16.40;96.30;;;;;;5112612;28;20040;-69
2021/07/18 01:29:50;;;;;;;18.03;11.63;;;16.40;96.30;;;;;;5112038;28;20049;-69
2021/07/18 01:32:16;;;;;;;20.27;11.60;;;16.40;96.30;;;;;;5112560;28;20046;-69
2021/07/18 01:34:41;;;;;;;16.03;11.30;;;16.40;96.30;;;;;;5112891;28;20440;-69
2021/07/18 01:37:07;;;;;;;15.07;11.07;;;16.30;96.30;;;;;;5111885;28;20048;-70
2021/07/18 01:39:32;;;;;;;19.00;11.13;;;16.40;96.30;;;;;;5111731;28;20127;-70
2021/07/18 01:41:58;;;;;;;17.43;11.20;;;16.40;96.30;;;;;;5112457;28;20048;-70
2021/07/18 01:44:24;;;;;;;17.47;11.30;;;16.30;96.30;;;;;;5111798;28;20039;-70
2021/07/18 01:46:51;;;;;;;20.83;11.73;;;16.30;96.30;;;;;;5112559;28;20526;-69
2021/07/18 01:49:16;;;;;;;21.80;12.37;;;16.30;96.30;;;;;;5112225;28;20050;-69
2021/07/18 01:51:43;;;;;;;19.57;12.13;;;16.30;96.30;;;;;;5111624;28;20047;-70
2021/07/18 01:54:10;;;;;;;19.27;12.30;;;16.30;96.40;;;;;;5112119;28;20047;-70
2021/07/18 01:56:36;;;;;;;20.23;11.40;;;16.20;96.40;;;;;;5112336;28;20050;-70
2021/07/18 01:59:02;;;;;;;17.03;11.23;;;16.20;96.40;;;;;;5111064;28;20040;-69
2021/07/18 02:01:30;;;;;;;23.23;12.17;;;16.20;96.50;;;;;;5112124;28;20047;-69
2021/07/18 02:03:57;;;;;;;22.70;12.60;;;16.20;96.50;;;;;;5112115;28;20416;-70
2021/07/18 02:06:25;;;;;;;18.50;12.17;;;16.20;96.60;;;;;;5110876;28;20056;-69
2021/07/18 02:08:52;;;;;;;20.17;12.10;;;16.20;96.60;;;;;;5112252;28;20052;-69
2021/07/18 02:11:19;;;;;;;22.13;13.40;;;16.20;96.60;;;;;;5110998;28;20048;-70
2021/07/18 02:13:50;;;;;;;21.43;12.47;;;16.20;96.70;;;;;;5112158;28;20051;-69
2021/07/18 02:16:17;;;;;;;23.20;13.43;;;16.20;96.80;;;;;;5111758;28;20100;-68
2021/07/18 02:18:43;;;;;;;20.27;11.40;;;16.20;96.80;;;;;;5110982;28;20325;-69
2021/07/18 02:21:09;;;;;;;27.30;13.60;;;16.10;96.80;;;;;;5111640;28;20094;-69
2021/07/18 02:23:35;;;;;;;25.87;13.23;;;16.20;96.90;;;;;;5111988;28;20056;-69
2021/07/18 02:26:02;;;;;;;22.43;13.93;;;16.20;96.90;;;;;;5110868;28;20051;-69
2021/07/18 02:28:28;;;;;;;26.43;12.37;;;16.20;97.00;;;;;;5111762;28;20056;-69
2021/07/18 02:30:53;;;;;;;23.83;13.50;;;16.20;97.00;;;;;;5111754;28;20136;-69
2021/07/18 02:33:19;;;;;;;21.10;12.63;;;16.20;97.00;;;;;;5110661;28;20134;-69
2021/07/18 02:35:45;;;;;;;30.43;13.70;;;16.20;97.10;;;;;;5112031;28;20473;-69
2021/07/18 02:38:10;;;;;;;21.70;13.67;;;16.20;97.10;;;;;;5111604;28;20048;-69
2021/07/18 02:40:39;;;;;;;21.63;13.40;;;16.20;97.10;;;;;;5111154;28;20051;-69
2021/07/18 02:43:04;;;;;;;25.30;13.70;;;16.20;97.20;;;;;;5111474;28;20460;-69
2021/07/18 02:45:32;;;;;;;25.67;13.67;;;16.20;97.20;;;;;;5111689;28;20526;-69
2021/07/18 02:47:58;;;;;;;22.07;13.17;;;16.20;97.20;;;;;;5110887;28;20047;-70
2021/07/18 02:50:27;;;;;;;26.90;15.17;;;16.20;97.20;;;;;;5113148;28;20048;-69
2021/07/18 02:52:53;;;;;;;22.67;13.57;;;16.20;97.20;;;;;;5115922;28;20472;-69
2021/07/18 02:55:20;;;;;;;23.00;12.93;;;16.20;97.20;;;;;;5114845;28;20056;-69
2021/07/18 02:57:45;;;;;;;24.17;12.77;;;16.20;97.30;;;;;;5115804;28;20043;-68
2021/07/18 03:00:14;;;;;;;21.93;13.37;;;16.10;97.30;;;;;;5115586;28;20047;-69
2021/07/18 03:02:41;;;;;;;22.07;13.73;;;16.20;97.40;;;;;;5115185;28;20130;-69
2021/07/18 03:05:07;;;;;;;21.20;12.37;;;16.20;97.40;;;;;;5115573;28;20039;-69
2021/07/18 03:07:32;;;;;;;20.90;13.70;;;16.20;97.40;;;;;;5114925;28;20480;-69
2021/07/18 03:09:58;;;;;;;24.17;14.23;;;16.10;97.30;;;;;;5115611;28;20139;-69
2021/07/18 03:12:24;;;;;;;28.90;14.73;;;16.20;97.40;;;;;;5115249;28;20054;-69
2021/07/18 03:14:49;;;;;;;29.40;14.80;;;16.10;97.40;;;;;;5114765;28;20039;-69
2021/07/18 03:17:16;;;;;;;24.53;15.53;;;16.10;97.50;;;;;;5115340;28;20048;-69
2021/07/18 03:19:41;;;;;;;27.03;15.60;;;16.10;97.50;;;;;;5115293;28;20059;-69
2021/07/18 03:22:07;;;;;;;30.37;16.60;;;16.10;97.50;;;;;;5114356;28;20143;-69
2021/07/18 03:24:33;;;;;;;29.43;17.20;;;16.10;97.60;;;;;;5115351;28;20189;-69
2021/07/18 03:26:59;;;;;;;28.77;16.90;;;16.10;97.60;;;;;;5115285;28;20044;-69
2021/07/18 03:29:25;;;;;;;28.47;15.50;;;16.10;97.60;;;;;;5114376;28;20054;-69
2021/07/18 03:31:50;;;;;;;31.10;17.20;;;16.10;97.70;;;;;;5115451;28;20051;-69
2021/07/18 03:34:16;;;;;;;31.27;17.20;;;16.10;97.70;;;;;;5114906;28;20048;-69
2021/07/18 03:36:42;;;;;;;31.43;16.47;;;16.10;97.80;;;;;;5114074;28;20507;-69
2021/07/18 03:39:07;;;;;;;32.00;16.03;;;16.10;97.80;;;;;;5114797;28;20052;-69
2021/07/18 03:41:33;;;;;;;31.27;16.13;;;16.10;97.80;;;;;;5114904;28;20388;-69
2021/07/18 03:43:59;;;;;;;28.63;15.77;;;16.10;97.90;;;;;;5114011;28;20357;-69
2021/07/18 03:46:24;;;;;;;22.23;14.17;;;16.00;97.90;;;;;;5114829;28;20048;-69
2021/07/18 03:48:50;;;;;;;21.93;15.07;;;16.00;97.90;;;;;;5114933;28;20135;-69
2021/07/18 03:51:16;;;;;;;23.73;15.17;;;16.00;97.90;;;;;;5113833;28;20048;-69
2021/07/18 03:53:41;;;;;;;20.07;14.13;;;16.00;98.00;;;;;;5114858;28;20053;-70
2021/07/18 03:56:08;;;;;;;23.37;14.93;;;15.90;98.00;;;;;;5114440;28;20394;-69
2021/07/18 03:58:34;;;;;;;19.90;15.13;;;16.00;98.00;;;;;;5113626;28;20044;-69
2021/07/18 04:01:00;;;;;;;20.37;14.53;;;16.00;98.00;;;;;;5114397;28;20100;-69
2021/07/18 04:03:27;;;;;;;22.27;15.27;;;16.00;98.00;;;;;;5114115;28;20043;-69
2021/07/18 04:05:56;;;;;;;26.73;15.20;;;16.00;98.00;;;;;;5113794;28;20047;-69
2021/07/18 04:08:22;;;;;;;23.13;16.23;;;16.00;98.00;;;;;;5113972;28;20043;-69
2021/07/18 04:10:48;;;;;;;23.50;15.97;;;16.00;98.10;;;;;;5113656;28;20109;-69
2021/07/18 04:13:13;;;;;;;20.07;14.87;;;16.00;98.10;;;;;;5113859;28;20066;-69
2021/07/18 04:15:39;;;;;;;21.77;15.03;;;16.00;98.10;;;;;;5114703;28;20078;-69
2021/07/18 04:18:09;;;;;;;17.70;14.53;;;16.00;98.10;;;;;;5113632;28;20246;-68
2021/07/18 04:20:34;;;;;;;20.23;14.10;;;16.00;98.10;;;;;;5114011;28;20058;-69
2021/07/18 04:23:00;;;;;;;17.00;12.87;;;16.00;98.10;;;;;;5113975;28;20047;-69
2021/07/18 04:25:26;;;;;;;17.50;13.67;;;16.00;98.10;;;;;;5113543;28;20074;-69
2021/07/18 04:27:51;;;;;;;18.27;12.97;;;16.00;98.50;;;;;;5113801;28;20412;-69
2021/07/18 04:30:17;;;;;;;21.00;14.00;;;16.00;98.10;;;;;;5113964;28;20128;-68
2021/07/18 04:32:43;;;;;;;18.60;13.67;;;16.10;98.10;;;;;;5113432;28;20078;-69
2021/07/18 04:35:09;;;;;;;17.37;13.37;;;16.00;98.10;;;;;;5113143;28;20039;-68
2021/07/18 04:37:38;;;;;;;19.60;14.37;;;16.10;98.30;;;;;;5113661;27;20051;-69
2021/07/18 04:40:05;;;;;;;15.83;13.40;;;16.20;98.20;;;;;;5112567;28;20048;-69
2021/07/18 04:42:31;;;;;;;17.33;14.03;;;16.20;98.00;;;;;;5113389;28;20044;-68
2021/07/18 04:44:57;;;;;;;16.80;12.60;;;16.30;98.00;;;;;;5113673;28;20043;-68
2021/07/18 04:47:23;;;;;;;14.77;11.77;;;16.30;97.90;;;;;;5112512;28;20062;-69
2021/07/18 04:49:50;;;;;;;15.73;12.30;;;16.30;97.90;;;;;;5113578;28;20122;-68
2021/07/18 04:52:17;;;;;;;15.83;13.47;;;16.30;97.80;;;;;;5113029;27;20040;-68
2021/07/18 04:54:43;;;;;;;17.10;12.60;;;16.30;97.90;;;;;;5112436;28;20128;-69
2021/07/18 04:57:13;;;;;;;15.23;12.80;;;16.30;97.90;;;;;;5113110;28;20039;-69
2021/07/18 04:59:42;;;;;;;15.03;11.67;;;16.30;97.80;;;;;;5113058;28;20047;-69
2021/07/18 05:02:07;;;;;;;14.77;11.57;;;16.30;97.80;;;;;;5112337;28;20413;-68
2021/07/18 05:04:33;;;;;;;14.93;12.43;;;16.30;97.90;;;;;;5112895;28;20044;-69
2021/07/18 05:07:02;;;;;;;18.97;12.40;;;16.40;97.90;;;;;;5112543;28;20054;-68
2021/07/18 05:09:27;;;;;;;18.17;13.10;;;16.40;97.90;;;;;;5113047;28;20089;-69
2021/07/18 05:11:53;;;;;;;13.23;11.40;;;16.40;97.90;;;;;;5113031;28;20047;-68
2021/07/18 05:14:19;;;;;;;16.37;12.77;;;16.40;98.30;;;;;;5111928;28;20232;-68
2021/07/18 05:16:44;;;;;;;15.57;12.30;;;16.50;97.90;;;;;;5113075;28;20484;-69
2021/07/18 05:19:10;;;;;;;16.77;12.53;;;16.50;97.90;;;;;;5112404;28;20047;-69
2021/07/18 05:21:36;;;;;;;17.70;11.47;;;16.60;98.10;;;;;;5111779;28;20088;-68
2021/07/18 05:24:01;;;;;;;15.43;12.10;;;16.70;98.20;;;;;;5112363;28;20048;-69
2021/07/18 05:26:27;;;;;;;17.53;12.43;;;16.90;98.00;;;;;;5112838;28;20134;-68
2021/07/18 05:28:53;;;;;;;15.50;10.73;;;17.00;97.70;;;;;;5112078;28;20051;-68
2021/07/18 05:31:18;;;;;;;16.27;11.43;;;17.10;97.50;;;;;;5112319;28;20036;-68
2021/07/18 05:33:44;;;;;;;15.37;10.53;;;17.10;97.40;;;;;;5112826;28;20051;-68
2021/07/18 05:36:11;;;;;;;14.07;11.43;;;17.20;97.30;;;;;;5111457;28;20051;-68
2021/07/18 05:38:37;;;;;;;12.40;10.63;;;17.20;97.30;;;;;;5112488;28;20070;-68
2021/07/18 05:41:03;;;;;;;16.73;10.73;;;17.20;97.40;;;;;;5112408;28;20042;-69
2021/07/18 05:43:29;;;;;;;14.40;11.40;;;17.30;97.50;;;;;;5111903;28;20130;-68
2021/07/18 05:45:55;;;;;;;17.37;11.77;;;17.40;97.20;;;;;;5112433;28;20120;-69
2021/07/18 05:48:24;;;;;;;15.57;10.53;;;17.40;97.00;;;;;;5112024;28;20047;-69
2021/07/18 05:50:54;;;;;;;13.53;10.77;;;17.40;97.00;;;;;;5109138;28;20055;-68
2021/07/18 05:53:20;;;;;;;13.23;10.37;;;17.50;97.00;;;;;;5111933;28;20043;-68
2021/07/18 05:55:45;;;;;;;16.47;11.20;;;17.50;97.00;;;;;;5112363;28;20039;-69
2021/07/18 05:58:11;;;;;;;14.23;11.03;;;17.50;97.00;;;;;;5111337;28;20100;-69
2021/07/18 06:00:40;;;;;;;13.73;10.47;;;17.50;97.00;;;;;;5112019;28;20446;-69
2021/07/18 06:03:07;;;;;;;13.17;10.27;;;17.60;97.10;;;;;;5111806;28;20043;-70
2021/07/18 06:05:34;;;;;;;14.33;11.40;;;17.60;97.00;;;;;;5108480;28;20126;-69
2021/07/18 06:08:03;;;;;;;14.43;11.07;;;17.60;97.00;;;;;;5111780;28;20048;-70
2021/07/18 06:10:29;;;;;;;14.80;11.40;;;17.70;97.10;;;;;;5111495;28;20048;-68
2021/07/18 06:12:56;;;;;;;15.43;9.97;;;17.80;97.00;;;;;;5111872;28;20549;-69
2021/07/18 06:15:22;;;;;;;14.23;10.73;;;17.80;96.80;;;;;;5111635;28;20048;-69
2021/07/18 06:17:48;;;;;;;15.50;11.77;;;17.80;96.70;;;;;;5111375;28;20048;-69
2021/07/18 06:20:14;;;;;;;12.83;10.97;;;17.90;96.70;;;;;;5111322;28;20138;-69
2021/07/18 06:22:40;;;;;;;15.50;10.63;;;17.90;96.70;;;;;;5112185;28;20103;-68
2021/07/18 06:25:09;;;;;;;14.83;10.77;;;18.00;96.70;;;;;;5110565;28;20055;-69
2021/07/18 06:27:38;;;;;;;15.00;10.43;;;18.00;96.70;;;;;;5109439;28;20043;-69
2021/07/18 06:30:04;;;;;;;12.90;11.03;;;18.00;96.70;;;;;;5111555;28;20044;-69
2021/07/18 06:32:29;;;;;;;15.03;10.53;;;18.10;96.70;;;;;;5111108;28;20096;-69
2021/07/18 06:34:55;;;;;;;16.63;10.60;;;18.10;96.70;;;;;;5111579;28;20044;-69
2021/07/18 06:37:21;;;;;;;14.73;10.33;;;18.20;96.80;;;;;;5111648;28;20318;-69
2021/07/18 06:39:47;;;;;;;13.97;10.57;;;18.30;96.80;;;;;;5111197;28;20043;-68
2021/07/18 06:42:13;;;;;;;12.80;9.80;;;18.30;96.70;;;;;;5108923;28;20048;-68
2021/07/18 06:44:38;;;;;;;14.10;9.27;;;18.40;96.60;;;;;;5111682;28;20534;-69
2021/07/18 06:47:04;;;;;;;10.83;8.50;;;18.50;96.60;;;;;;5110876;28;20047;-69
2021/07/18 06:49:30;;;;;;;14.43;9.27;;;18.60;96.80;;;;;;5111400;28;20405;-69
2021/07/18 06:51:55;;;;;;;12.70;8.50;;;18.80;96.30;;;;;;5111427;28;20454;-69
2021/07/18 06:54:21;;;;;;;10.93;8.33;;;18.90;96.00;;;;;;5110724;28;20123;-69
2021/07/18 06:56:50;;;;;;;15.30;8.17;;;19.00;95.80;;;;;;5111569;28;20135;-69
2021/07/18 06:59:16;;;;;;;12.03;8.07;;;19.00;95.60;;;;;;5111173;28;20051;-69
2021/07/18 07:01:42;;;;;;;9.80;8.00;;;19.10;95.50;;;;;;5111119;28;20043;-69
2021/07/18 07:04:08;;;;;;;12.80;8.30;;;19.10;95.40;;;;;;5111015;28;20044;-70
2021/07/18 07:06:34;;;;;;;9.60;7.43;;;19.10;95.20;;;;;;5111041;28;20067;-69
2021/07/18 07:08:59;;;;;;;9.40;7.23;;;19.10;95.10;;;;;;5111282;28;20104;-69
2021/07/18 07:11:25;;;;;;;11.00;7.07;;;19.20;95.10;;;;;;5111763;28;20048;-69
2021/07/18 07:13:51;;;;;;;9.27;7.03;;;19.20;95.00;;;;;;5110737;28;20056;-69
2021/07/18 07:16:18;;;;;;;9.23;5.70;;;19.20;94.80;;;;;;5110760;28;20377;-69
2021/07/18 07:18:44;;;;;;;10.73;6.87;;;19.30;94.70;;;;;;5110706;28;20480;-68
2021/07/18 07:21:11;;;;;;;8.73;6.30;;;19.30;94.80;;;;;;5109989;28;20218;-68
2021/07/18 07:23:37;;;;;;;10.67;7.13;;;19.40;94.80;;;;;;5111246;28;20048;-69
2021/07/18 07:26:04;;;;;;;10.97;6.77;;;19.50;94.60;;;;;;5111118;28;20044;-68
2021/07/18 07:28:31;;;;;;;11.30;6.13;;;19.50;94.40;;;;;;5109932;28;20048;-68
2021/07/18 07:31:00;;;;;;;9.13;5.13;;;19.60;94.40;;;;;;5111046;28;20051;-68
2021/07/18 07:33:29;;;;;;;10.80;5.40;;;19.60;94.40;;;;;;5111289;28;20085;-68
2021/07/18 07:35:54;;;;;;;9.17;5.87;;;19.70;94.10;;;;;;5107719;28;20564;-68
2021/07/18 07:38:20;;;;;;;9.87;5.20;;;19.80;93.70;;;;;;5113585;28;20126;-68
2021/07/18 07:40:46;;;;;;;9.30;5.40;;;19.90;93.50;;;;;;5114719;28;20044;-68
2021/07/18 07:43:12;;;;;;;10.40;4.30;;;19.90;93.50;;;;;;5113742;28;20067;-68
2021/07/18 07:45:38;;;;;;;11.57;4.80;;;20.00;93.30;;;;;;5114647;28;20051;-69
2021/07/18 07:48:05;;;;;;;7.83;4.43;;;20.10;93.00;;;;;;5114284;28;20077;-68
2021/07/18 07:50:31;;;;;;;7.07;4.23;;;20.20;92.80;;;;;;5113873;28;20050;-68
2021/07/18 07:52:59;;;;;;;10.77;5.10;;;20.20;92.50;;;;;;5114625;28;20047;-68
2021/07/18 07:55:26;;;;;;;8.80;4.17;;;20.30;92.40;;;;;;5114514;28;20384;-68
2021/07/18 07:57:52;;;;;;;7.33;4.00;;;20.30;92.40;;;;;;5113424;28;20047;-69
2021/07/18 08:00:19;;;;;;;7.53;3.77;;;20.30;92.10;;;;;;5113720;28;20380;-69
2021/07/18 08:02:49;;;;;;;6.17;2.73;;;20.40;91.90;;;;;;5114332;27;20045;-69
2021/07/18 08:05:15;;;;;;;4.83;3.50;;;20.40;91.50;;;;;;5111094;28;20040;-69
2021/07/18 08:07:41;;;;;;;5.67;3.30;;;20.50;91.30;;;;;;5114350;28;20043;-68
2021/07/18 08:10:12;;;;;;;7.43;2.83;;;20.60;91.20;;;;;;5113113;28;20105;-69
2021/07/18 08:12:39;;;;;;;5.85;3.05;;;20.60;91.00;;;;;;5111607;28;20126;-69
2021/07/18 08:15:06;;;;;;;6.07;3.23;;;20.70;90.90;;;;;;5113447;28;20054;-70
2021/07/18 08:17:33;;;;;;;7.20;3.15;;;20.90;90.90;;;;;;5112981;28;20047;-69
2021/07/18 08:20:00;;;;;;;6.00;2.58;;;21.20;90.80;;;;;;5113673;28;20516;-69
2021/07/18 08:22:27;;;;;;;5.03;2.50;;;21.40;91.00;;;;;;5113463;28;20146;-69
2021/07/18 08:24:53;;;;;;;5.22;2.55;;;21.80;90.30;;;;;;5112686;28;20520;-70
2021/07/18 08:27:18;;;;;;;5.35;2.50;;;22.00;88.70;;;;;;5112439;28;20059;-69
2021/07/18 08:29:47;;;;;;;5.03;2.20;;;22.00;87.00;;;;;;5113303;28;20071;-69
2021/07/18 08:32:13;;;;;;;3.58;2.17;;;22.00;86.30;;;;;;5112556;28;20375;-69
2021/07/18 08:34:39;;;;;;;4.72;2.58;;;22.10;85.80;;;;;;5112915;28;20357;-69
2021/07/18 08:37:05;;;;;;;3.95;2.40;;;22.10;84.70;;;;;;5112957;28;20058;-70
2021/07/18 08:39:34;;;;;;;3.85;2.35;;;22.20;83.80;;;;;;5112587;28;20051;-70
2021/07/18 08:42:00;;;;;;;6.20;2.40;;;22.20;83.00;;;;;;5112210;28;20054;-70
2021/07/18 08:44:28;;;;;;;4.03;2.40;;;22.30;82.90;;;;;;5113419;28;20044;-70
2021/07/18 08:46:54;;;;;;;4.20;2.50;;;22.30;82.50;;;;;;5112268;28;20048;-69
2021/07/18 08:49:20;;;;;;;5.90;2.65;;;22.30;82.80;;;;;;5112423;28;20461;-69
2021/07/18 08:51:45;;;;;;;5.47;2.28;;;22.40;83.40;;;;;;5112915;28;20055;-70
2021/07/18 08:54:11;;;;;;;5.70;2.28;;;22.60;82.50;;;;;;5112008;28;20051;-70
2021/07/18 08:56:39;;;;;;;5.68;2.25;;;22.80;81.30;;;;;;5112680;28;20040;-70
2021/07/18 08:59:10;;;;;;;7.72;2.30;;;22.80;80.60;;;;;;5109747;28;20035;-70
2021/07/18 09:01:44;;;;;;;5.97;2.17;;;22.80;79.70;;;;;;5112676;28;20051;-69
2021/07/18 09:04:10;;;;;;;3.15;1.90;;;22.80;78.70;;;;;;5110833;28;20131;-69
2021/07/18 09:06:45;;;;;;;5.30;2.50;;;22.80;79.10;;;;;;5111664;28;20051;-69
2021/07/18 09:09:14;;;;;;;5.97;2.78;;;22.80;79.30;;;;;;5110790;28;20052;-69
2021/07/18 09:11:41;;;;;;;4.78;2.50;;;22.80;78.80;;;;;;5112796;28;20276;-69
2021/07/18 09:14:08;;;;;;;4.38;2.35;;;22.90;79.00;;;;;;5111697;28;20123;-70
2021/07/18 09:16:37;;;;;;;4.78;2.58;;;22.90;79.00;;;;;;5112767;28;20145;-70
2021/07/18 09:19:29;;;;;;;4.78;2.60;;;23.00;78.60;;;;;;5109613;28;20119;-71
2021/07/18 09:22:04;;;;;;;4.05;2.47;;;23.20;77.70;;;;;;5110515;28;20448;-70
2021/07/18 09:24:32;;;;;;;4.68;2.63;;;23.30;78.30;;;;;;5110677;28;20047;-70
2021/07/18 09:27:18;;;;;;;3.90;2.40;;;23.40;79.00;;;;;;5112594;28;20139;-70
2021/07/18 09:29:52;;;;;;;4.45;2.13;;;23.60;77.60;;;;;;5109803;28;20046;-70
2021/07/18 09:32:21;;;;;;;3.50;2.60;;;23.60;78.60;;;;;;5112327;28;20514;-70
2021/07/18 09:34:49;;;;;;;6.70;2.80;;;23.80;79.10;;;;;;5111591;28;20054;-69
2021/07/18 09:37:21;;;;;;;4.85;1.95;;;23.90;77.60;;;;;;5112192;28;20047;-69
2021/07/18 09:39:50;;;;;;;5.15;2.45;;;24.00;76.20;;;;;;5109802;28;20046;-68
2021/07/18 09:42:38;;;;;;;4.70;2.25;;;24.20;75.10;;;;;;5110869;28;20044;-69
2021/07/18 09:45:16;;;;;;;4.82;2.45;;;24.30;74.30;;;;;;5109290;28;20087;-70
2021/07/18 09:48:08;;;;;;;5.13;2.72;;;24.50;73.00;;;;;;5112059;28;20085;-68
2021/07/18 09:50:45;;;;;;;3.97;2.15;;;24.70;72.00;;;;;;5109798;28;20039;-69
2021/07/18 09:53:15;;;;;;;6.43;2.47;;;24.80;71.00;;;;;;5110037;28;20205;-69
2021/07/18 09:56:09;;;;;;;7.40;2.20;;;25.00;70.40;;;;;;5111256;28;20059;-70
2021/07/18 09:58:50;;;;;;;4.18;2.53;;;25.20;70.30;;;;;;5109969;28;20111;-69
2021/07/18 10:01:17;;;;;;;6.10;2.47;;;25.40;69.70;;;;;;5109761;28;20055;-68
2021/07/18 10:03:47;;;;;;;4.55;2.17;;;25.40;68.90;;;;;;5107609;28;20350;-71
2021/07/18 10:06:18;;;;;;;4.90;2.40;;;25.20;68.50;;;;;;5111502;28;20043;-70
2021/07/18 10:08:49;;;;;;;;;;;25.10;67.80;;;;;;5109525;28;20128;-70
2021/07/18 10:11:21;;;;;;;5.90;2.90;;;24.90;67.50;;;;;;5103558;28;19920;-71
2021/07/18 10:13:48;;;;;;;4.10;2.30;;;24.90;68.60;;;;;;5107820;28;20051;-68
2021/07/18 10:16:16;;;;;;;4.85;2.28;;;25.00;68.40;;;;;;5106485;28;20157;-67
2021/07/18 10:18:43;;;;;;;4.45;2.22;;;25.00;68.40;;;;;;5106363;28;20043;-70
2021/07/18 10:21:11;;;;;;;3.83;2.10;;;25.00;68.50;;;;;;5106307;28;20076;-68
2021/07/18 10:23:42;;;;;;;5.13;2.20;;;24.80;68.60;;;;;;5105806;28;20055;-69
2021/07/18 10:26:13;;;;;;;5.25;2.22;;;24.70;69.10;;;;;;5104147;28;20506;-70
2021/07/18 10:28:39;;;;;;;5.53;2.17;;;24.60;68.90;;;;;;5106405;28;20131;-68
2021/07/18 10:31:14;;;;;;;4.80;2.28;;;24.60;68.60;;;;;;5105408;28;20039;-68
2021/07/18 10:33:42;;;;;;;5.13;2.30;;;24.60;68.50;;;;;;5106576;28;20126;-68
2021/07/18 10:36:10;;;;;;;5.15;1.80;;;24.70;68.70;;;;;;5106161;28;20050;-68
2021/07/18 10:38:36;;;;;;;4.60;2.08;;;24.80;68.50;;;;;;5105875;28;20039;-69
2021/07/18 10:41:02;;;;;;;3.67;2.17;;;25.00;68.20;;;;;;5107292;28;20226;-70
2021/07/18 10:43:41;;;;;;;3.47;2.30;;;25.00;67.80;;;;;;5108250;28;20096;-68
2021/07/18 10:46:12;;;;;;;3.67;1.85;;;25.00;67.40;;;;;;5106996;28;20040;-70
2021/07/18 10:48:45;;;;;;;;;;;24.90;67.70;;;;;;5108373;28;20514;-69
2021/07/18 10:51:13;;;;;;;4.25;2.30;;;24.80;66.90;;;;;;5107822;28;19923;-69
2021/07/18 10:53:38;;;;;;;4.55;1.90;;;24.80;68.40;;;;;;5107670;28;20044;-71
2021/07/18 10:56:06;;;;;;;4.95;1.80;;;24.90;68.10;;;;;;5108673;28;20048;-69
2021/07/18 10:58:37;;;;;;;3.97;1.88;;;25.00;66.90;;;;;;5108336;28;20043;-69
2021/07/18 11:01:04;;;;;;;2.97;2.10;;;25.10;66.70;;;;;;5107626;28;20043;-69
2021/07/18 11:03:34;;;;;;;5.35;2.28;;;25.20;66.10;;;;;;5108535;28;20047;-70
2021/07/18 11:06:26;;;;;;;5.90;1.70;;;25.40;65.70;;;;;;5107742;28;20462;-71
2021/07/18 11:09:04;;;;;;;;;;;25.60;65.60;;;;;;5109039;28;20130;-71
2021/07/18 11:11:42;;;;;;;3.70;1.92;;;25.50;64.70;;;;;;5109898;28;19919;-70
2021/07/18 11:14:26;;;;;;;4.57;2.30;;;25.40;66.20;;;;;;5111333;28;20090;-71
2021/07/18 11:16:57;;;;;;;4.80;2.20;;;25.40;65.90;;;;;;5111636;28;20071;-70
2021/07/18 11:19:35;;;;;;;4.43;2.30;;;25.30;66.10;;;;;;5111849;28;20056;-69
2021/07/18 11:22:02;;;;;;;2.60;2.00;;;25.30;65.40;;;;;;5110983;28;20043;-70
2021/07/18 11:24:56;;;;;;;4.55;2.25;;;25.30;66.80;;;;;;5111741;28;20396;-71
2021/07/18 11:27:44;;;;;;;3.83;2.20;;;25.30;65.60;;;;;;5108501;28;20050;-69
2021/07/18 11:30:36;;;;;;;3.75;2.33;;;25.40;66.80;;;;;;5110201;28;20063;-70
2021/07/18 11:33:28;;;;;;;4.95;2.63;;;25.50;66.40;;;;;;5111813;28;20138;-69
2021/07/18 11:35:56;;;;;;;4.32;2.00;;;25.60;65.40;;;;;;5113937;28;20039;-69
2021/07/18 11:38:22;;;;;;;2.63;2.10;;;25.60;64.90;;;;;;5113802;28;20107;-69
2021/07/18 11:40:48;;;;;;;4.75;2.35;;;25.50;65.10;;;;;;5113901;28;20035;-69
2021/07/18 11:43:14;;;;;;;3.83;2.00;;;25.30;65.00;;;;;;5112784;28;20483;-69
2021/07/18 11:45:39;;;;;;;4.65;2.05;;;25.20;65.50;;;;;;5113545;28;20046;-68
2021/07/18 11:48:06;;;;;;;2.92;2.00;;;25.20;65.50;;;;;;5112742;28;20044;-68
2021/07/18 11:50:31;;;;;;;5.07;2.20;;;25.20;65.50;;;;;;5114301;28;20070;-68
2021/07/18 11:52:59;;;;;;;3.60;2.22;;;25.20;65.20;;;;;;5113860;28;20472;-69
2021/07/18 11:55:25;;;;;;;8.88;2.78;;;25.20;64.80;;;;;;5112893;28;20066;-68
2021/07/18 11:57:52;;;;;;;6.03;2.38;;;25.10;65.20;;;;;;5113156;28;20078;-70
2021/07/18 12:00:18;;;;;;;6.63;2.97;;;25.20;65.60;;;;;;5113731;28;20047;-70
2021/07/18 12:02:44;;;;;;;4.70;2.78;;;25.30;64.50;;;;;;5113584;28;20058;-69
2021/07/18 12:05:10;;;;;;;6.72;2.25;;;25.30;64.60;;;;;;5114080;28;20039;-69
2021/07/18 12:07:36;;;;;;;4.10;2.33;;;25.30;64.20;;;;;;5114123;28;20048;-69
2021/07/18 12:10:05;;;;;;;4.18;2.30;;;25.20;64.80;;;;;;5113028;28;20051;-70
2021/07/18 12:12:31;;;;;;;5.55;2.40;;;25.20;64.30;;;;;;5114106;28;20047;-68
2021/07/18 12:14:56;;;;;;;6.43;2.33;;;25.20;64.10;;;;;;5114168;28;20127;-69
2021/07/18 12:17:22;;;;;;;4.47;2.20;;;25.30;64.30;;;;;;5113116;28;20050;-69
2021/07/18 12:19:51;;;;;;;4.90;2.50;;;25.40;63.30;;;;;;5113623;28;20058;-69
2021/07/18 12:22:22;;;;;;;4.20;2.60;;;25.40;62.80;;;;;;5112958;28;20138;-69
2021/07/18 12:24:50;;;;;;;;;;;25.60;62.00;;;;;;5112367;28;20062;-70
2021/07/18 12:27:26;;;;;;;8.13;2.78;;;25.60;61.10;;;;;;5113044;28;20019;-68
2021/07/18 12:29:55;;;;;;;3.92;2.33;;;25.70;63.40;;;;;;5112294;28;20043;-68
2021/07/18 12:32:25;;;;;;;3.95;2.20;;;25.60;63.40;;;;;;5112774;28;20051;-69
2021/07/18 12:34:53;;;;;;;5.65;2.50;;;25.40;64.30;;;;;;5113850;28;20059;-68
2021/07/18 12:37:30;;;;;;;4.88;2.25;;;25.10;64.70;;;;;;5112592;28;20078;-69
2021/07/18 12:40:02;;;;;;;5.32;2.30;;;24.90;65.70;;;;;;5113590;28;20044;-70
2021/07/18 12:42:36;;;;;;;4.72;2.65;;;24.90;67.20;;;;;;5112820;28;20147;-69